sensor_id;sensor_type;location;lat;lon;timestamp;P1;durP1;ratioP1;P2;durP2;ratioP2
55633;SDS011;41504;53.162;6.788;2023-05-07T00:01:28;21.88;;;16.58;;
55633;SDS011;41504;53.162;6.788;2023-05-07T00:03:53;23.45;;;16.83;;
55633;SDS011;41504;53.162;6.788;2023-05-07T00:06:19;22.92;;;17.90;;
55633;SDS011;41504;53.162;6.788;2023-05-07T00:08:45;23.65;;;17.83;;
55633;SDS011;41504;53.162;6.788;2023-05-07T00:11:10;25.77;;;17.50;;
55633;SDS011;41504;53.162;6.788;2023-05-07T00:13:36;23.02;;;17.02;;
55633;SDS011;41504;53.162;6.788;2023-05-07T00:16:02;22.40;;;17.52;;
55633;SDS011;41504;53.162;6.788;2023-05-07T00:18:28;25.95;;;18.02;;
55633;SDS011;41504;53.162;6.788;2023-05-07T00:20:54;22.77;;;17.65;;
55633;SDS011;41504;53.162;6.788;2023-05-07T00:23:21;23.10;;;17.65;;
55633;SDS011;41504;53.162;6.788;2023-05-07T00:25:47;23.48;;;18.02;;
55633;SDS011;41504;53.162;6.788;2023-05-07T00:28:13;28.13;;;19.05;;
55633;SDS011;41504;53.162;6.788;2023-05-07T00:30:38;25.08;;;18.13;;
55633;SDS011;41504;53.162;6.788;2023-05-07T00:33:04;25.27;;;18.80;;
55633;SDS011;41504;53.162;6.788;2023-05-07T00:35:30;25.80;;;18.98;;
55633;SDS011;41504;53.162;6.788;2023-05-07T00:37:56;24.27;;;19.02;;
55633;SDS011;41504;53.162;6.788;2023-05-07T00:40:23;26.10;;;19.10;;
55633;SDS011;41504;53.162;6.788;2023-05-07T00:42:48;22.33;;;18.55;;
55633;SDS011;41504;53.162;6.788;2023-05-07T00:45:15;26.15;;;19.98;;
55633;SDS011;41504;53.162;6.788;2023-05-07T00:47:42;23.73;;;18.70;;
55633;SDS011;41504;53.162;6.788;2023-05-07T00:50:09;26.77;;;20.27;;
55633;SDS011;41504;53.162;6.788;2023-05-07T00:52:35;25.75;;;20.15;;
55633;SDS011;41504;53.162;6.788;2023-05-07T00:55:04;28.85;;;20.80;;
55633;SDS011;41504;53.162;6.788;2023-05-07T00:57:40;28.70;;;21.00;;
55633;SDS011;41504;53.162;6.788;2023-05-07T01:00:07;27.50;;;20.55;;
55633;SDS011;41504;53.162;6.788;2023-05-07T01:02:38;26.60;;;20.08;;
55633;SDS011;41504;53.162;6.788;2023-05-07T01:05:05;24.70;;;19.67;;
55633;SDS011;41504;53.162;6.788;2023-05-07T01:07:32;29.05;;;20.88;;
55633;SDS011;41504;53.162;6.788;2023-05-07T01:09:59;24.45;;;18.70;;
55633;SDS011;41504;53.162;6.788;2023-05-07T01:12:27;24.20;;;19.20;;
55633;SDS011;41504;53.162;6.788;2023-05-07T01:14:54;25.80;;;19.63;;
55633;SDS011;41504;53.162;6.788;2023-05-07T01:17:20;24.75;;;19.23;;
55633;SDS011;41504;53.162;6.788;2023-05-07T01:19:46;24.00;;;19.33;;
55633;SDS011;41504;53.162;6.788;2023-05-07T01:22:13;24.98;;;18.83;;
55633;SDS011;41504;53.162;6.788;2023-05-07T01:24:41;24.85;;;18.90;;
55633;SDS011;41504;53.162;6.788;2023-05-07T01:27:08;26.48;;;19.58;;
55633;SDS011;41504;53.162;6.788;2023-05-07T01:29:33;26.30;;;19.65;;
55633;SDS011;41504;53.162;6.788;2023-05-07T01:32:00;26.98;;;19.90;;
55633;SDS011;41504;53.162;6.788;2023-05-07T01:34:30;29.38;;;20.95;;
55633;SDS011;41504;53.162;6.788;2023-05-07T01:36:57;27.70;;;20.30;;
55633;SDS011;41504;53.162;6.788;2023-05-07T01:39:24;25.15;;;20.15;;
55633;SDS011;41504;53.162;6.788;2023-05-07T01:41:52;30.80;;;21.58;;
55633;SDS011;41504;53.162;6.788;2023-05-07T01:44:20;27.00;;;20.10;;
55633;SDS011;41504;53.162;6.788;2023-05-07T01:46:47;29.30;;;20.30;;
55633;SDS011;41504;53.162;6.788;2023-05-07T01:49:13;25.83;;;19.48;;
55633;SDS011;41504;53.162;6.788;2023-05-07T01:51:40;27.27;;;20.30;;
55633;SDS011;41504;53.162;6.788;2023-05-07T01:54:06;26.52;;;19.63;;
55633;SDS011;41504;53.162;6.788;2023-05-07T01:56:33;29.13;;;21.33;;
55633;SDS011;41504;53.162;6.788;2023-05-07T01:58:59;26.33;;;20.42;;
55633;SDS011;41504;53.162;6.788;2023-05-07T02:01:25;28.88;;;21.35;;
55633;SDS011;41504;53.162;6.788;2023-05-07T02:03:51;30.05;;;21.45;;
55633;SDS011;41504;53.162;6.788;2023-05-07T02:06:17;29.67;;;21.58;;
55633;SDS011;41504;53.162;6.788;2023-05-07T02:08:42;29.20;;;21.65;;
55633;SDS011;41504;53.162;6.788;2023-05-07T02:11:08;26.98;;;20.75;;
55633;SDS011;41504;53.162;6.788;2023-05-07T02:13:34;30.20;;;21.63;;
55633;SDS011;41504;53.162;6.788;2023-05-07T02:16:07;32.50;;;22.80;;
55633;SDS011;41504;53.162;6.788;2023-05-07T02:18:33;28.02;;;20.40;;
55633;SDS011;41504;53.162;6.788;2023-05-07T02:21:00;28.55;;;21.90;;
55633;SDS011;41504;53.162;6.788;2023-05-07T02:23:27;32.90;;;23.08;;
55633;SDS011;41504;53.162;6.788;2023-05-07T02:25:55;26.17;;;20.23;;
55633;SDS011;41504;53.162;6.788;2023-05-07T02:28:22;27.48;;;21.02;;
55633;SDS011;41504;53.162;6.788;2023-05-07T02:30:48;28.23;;;20.75;;
55633;SDS011;41504;53.162;6.788;2023-05-07T02:33:18;33.72;;;23.58;;
55633;SDS011;41504;53.162;6.788;2023-05-07T02:35:44;30.30;;;21.17;;
55633;SDS011;41504;53.162;6.788;2023-05-07T02:38:15;29.77;;;22.20;;
55633;SDS011;41504;53.162;6.788;2023-05-07T02:40:42;32.15;;;23.10;;
55633;SDS011;41504;53.162;6.788;2023-05-07T02:43:08;31.10;;;21.98;;
55633;SDS011;41504;53.162;6.788;2023-05-07T02:45:37;30.80;;;22.70;;
55633;SDS011;41504;53.162;6.788;2023-05-07T02:48:05;31.48;;;21.98;;
55633;SDS011;41504;53.162;6.788;2023-05-07T02:50:35;30.30;;;22.15;;
55633;SDS011;41504;53.162;6.788;2023-05-07T02:53:01;28.40;;;21.17;;
55633;SDS011;41504;53.162;6.788;2023-05-07T02:55:29;29.25;;;21.17;;
55633;SDS011;41504;53.162;6.788;2023-05-07T02:57:58;31.73;;;21.55;;
55633;SDS011;41504;53.162;6.788;2023-05-07T03:00:24;28.58;;;21.92;;
55633;SDS011;41504;53.162;6.788;2023-05-07T03:02:50;30.27;;;21.45;;
55633;SDS011;41504;53.162;6.788;2023-05-07T03:05:18;29.02;;;21.90;;
55633;SDS011;41504;53.162;6.788;2023-05-07T03:07:44;31.20;;;21.60;;
55633;SDS011;41504;53.162;6.788;2023-05-07T03:10:11;29.83;;;21.52;;
55633;SDS011;41504;53.162;6.788;2023-05-07T03:12:37;31.33;;;22.83;;
55633;SDS011;41504;53.162;6.788;2023-05-07T03:15:03;31.83;;;22.90;;
55633;SDS011;41504;53.162;6.788;2023-05-07T03:17:29;30.10;;;22.13;;
55633;SDS011;41504;53.162;6.788;2023-05-07T03:19:58;30.10;;;22.13;;
55633;SDS011;41504;53.162;6.788;2023-05-07T03:22:24;29.13;;;21.98;;
55633;SDS011;41504;53.162;6.788;2023-05-07T03:24:50;29.90;;;22.35;;
55633;SDS011;41504;53.162;6.788;2023-05-07T03:27:17;29.55;;;21.95;;
55633;SDS011;41504;53.162;6.788;2023-05-07T03:29:43;30.90;;;22.25;;
55633;SDS011;41504;53.162;6.788;2023-05-07T03:32:09;30.13;;;22.92;;
55633;SDS011;41504;53.162;6.788;2023-05-07T03:34:35;30.33;;;22.23;;
55633;SDS011;41504;53.162;6.788;2023-05-07T03:37:09;33.00;;;22.25;;
55633;SDS011;41504;53.162;6.788;2023-05-07T03:39:35;32.65;;;22.88;;
55633;SDS011;41504;53.162;6.788;2023-05-07T03:42:01;30.63;;;22.98;;
55633;SDS011;41504;53.162;6.788;2023-05-07T03:44:30;31.88;;;23.50;;
55633;SDS011;41504;53.162;6.788;2023-05-07T03:46:59;30.15;;;22.20;;
55633;SDS011;41504;53.162;6.788;2023-05-07T03:49:24;33.17;;;23.30;;
55633;SDS011;41504;53.162;6.788;2023-05-07T03:51:53;30.63;;;23.17;;
55633;SDS011;41504;53.162;6.788;2023-05-07T03:54:19;33.13;;;23.15;;
55633;SDS011;41504;53.162;6.788;2023-05-07T03:56:45;31.23;;;22.45;;
55633;SDS011;41504;53.162;6.788;2023-05-07T03:59:12;29.48;;;22.73;;
55633;SDS011;41504;53.162;6.788;2023-05-07T04:01:38;27.95;;;21.48;;
55633;SDS011;41504;53.162;6.788;2023-05-07T04:04:32;29.30;;;21.13;;
55633;SDS011;41504;53.162;6.788;2023-05-07T04:06:58;28.27;;;21.58;;
55633;SDS011;41504;53.162;6.788;2023-05-07T04:09:28;30.35;;;22.20;;
55633;SDS011;41504;53.162;6.788;2023-05-07T04:12:00;29.48;;;21.30;;
55633;SDS011;41504;53.162;6.788;2023-05-07T04:14:29;27.33;;;20.38;;
55633;SDS011;41504;53.162;6.788;2023-05-07T04:16:58;29.63;;;20.42;;
55633;SDS011;41504;53.162;6.788;2023-05-07T04:19:27;27.20;;;20.88;;
55633;SDS011;41504;53.162;6.788;2023-05-07T04:21:56;25.27;;;19.30;;
55633;SDS011;41504;53.162;6.788;2023-05-07T04:24:22;27.00;;;21.67;;
55633;SDS011;41504;53.162;6.788;2023-05-07T04:26:49;26.63;;;19.90;;
55633;SDS011;41504;53.162;6.788;2023-05-07T04:29:18;28.83;;;21.08;;
55633;SDS011;41504;53.162;6.788;2023-05-07T04:31:46;29.17;;;21.33;;
55633;SDS011;41504;53.162;6.788;2023-05-07T04:34:15;28.35;;;20.65;;
55633;SDS011;41504;53.162;6.788;2023-05-07T04:36:41;28.67;;;22.77;;
55633;SDS011;41504;53.162;6.788;2023-05-07T04:39:08;25.60;;;20.33;;
55633;SDS011;41504;53.162;6.788;2023-05-07T04:41:38;26.60;;;20.23;;
55633;SDS011;41504;53.162;6.788;2023-05-07T04:44:09;27.05;;;20.52;;
55633;SDS011;41504;53.162;6.788;2023-05-07T04:46:35;27.33;;;21.20;;
55633;SDS011;41504;53.162;6.788;2023-05-07T04:49:02;25.30;;;19.98;;
55633;SDS011;41504;53.162;6.788;2023-05-07T04:51:34;25.88;;;20.02;;
55633;SDS011;41504;53.162;6.788;2023-05-07T04:54:06;24.80;;;19.33;;
55633;SDS011;41504;53.162;6.788;2023-05-07T04:56:32;23.88;;;19.15;;
55633;SDS011;41504;53.162;6.788;2023-05-07T04:58:58;26.08;;;19.15;;
55633;SDS011;41504;53.162;6.788;2023-05-07T05:01:24;26.42;;;20.02;;
55633;SDS011;41504;53.162;6.788;2023-05-07T05:03:50;26.30;;;19.85;;
55633;SDS011;41504;53.162;6.788;2023-05-07T05:06:16;25.50;;;19.17;;
55633;SDS011;41504;53.162;6.788;2023-05-07T05:08:42;24.52;;;18.65;;
55633;SDS011;41504;53.162;6.788;2023-05-07T05:11:08;26.08;;;19.08;;
55633;SDS011;41504;53.162;6.788;2023-05-07T05:13:35;26.33;;;19.80;;
55633;SDS011;41504;53.162;6.788;2023-05-07T05:16:01;25.63;;;19.05;;
55633;SDS011;41504;53.162;6.788;2023-05-07T05:18:27;27.50;;;19.40;;
55633;SDS011;41504;53.162;6.788;2023-05-07T05:20:53;25.40;;;18.95;;
55633;SDS011;41504;53.162;6.788;2023-05-07T05:23:19;26.30;;;19.67;;
55633;SDS011;41504;53.162;6.788;2023-05-07T05:25:45;24.98;;;19.02;;
55633;SDS011;41504;53.162;6.788;2023-05-07T05:28:13;25.15;;;19.55;;
55633;SDS011;41504;53.162;6.788;2023-05-07T05:30:39;24.30;;;18.92;;
55633;SDS011;41504;53.162;6.788;2023-05-07T05:33:08;24.27;;;18.48;;
55633;SDS011;41504;53.162;6.788;2023-05-07T05:35:34;24.77;;;19.70;;
55633;SDS011;41504;53.162;6.788;2023-05-07T05:38:03;25.38;;;19.15;;
55633;SDS011;41504;53.162;6.788;2023-05-07T05:40:31;24.52;;;18.65;;
55633;SDS011;41504;53.162;6.788;2023-05-07T05:42:58;23.73;;;18.23;;
55633;SDS011;41504;53.162;6.788;2023-05-07T05:45:24;23.80;;;19.10;;
55633;SDS011;41504;53.162;6.788;2023-05-07T05:47:51;23.42;;;18.50;;
55633;SDS011;41504;53.162;6.788;2023-05-07T05:50:17;26.17;;;18.33;;
55633;SDS011;41504;53.162;6.788;2023-05-07T05:52:43;21.85;;;17.38;;
55633;SDS011;41504;53.162;6.788;2023-05-07T05:55:09;23.92;;;17.77;;
55633;SDS011;41504;53.162;6.788;2023-05-07T05:57:35;25.75;;;19.17;;
55633;SDS011;41504;53.162;6.788;2023-05-07T06:00:01;24.98;;;18.50;;
55633;SDS011;41504;53.162;6.788;2023-05-07T06:02:28;22.75;;;18.00;;
55633;SDS011;41504;53.162;6.788;2023-05-07T06:04:54;23.58;;;18.83;;
55633;SDS011;41504;53.162;6.788;2023-05-07T06:07:20;24.58;;;18.13;;
55633;SDS011;41504;53.162;6.788;2023-05-07T06:09:49;22.73;;;18.63;;
55633;SDS011;41504;53.162;6.788;2023-05-07T06:12:15;24.63;;;19.05;;
55633;SDS011;41504;53.162;6.788;2023-05-07T06:14:47;26.60;;;20.65;;
55633;SDS011;41504;53.162;6.788;2023-05-07T06:17:13;23.88;;;19.05;;
55633;SDS011;41504;53.162;6.788;2023-05-07T06:19:41;25.35;;;20.08;;
55633;SDS011;41504;53.162;6.788;2023-05-07T06:22:20;25.95;;;19.38;;
55633;SDS011;41504;53.162;6.788;2023-05-07T06:24:46;24.13;;;19.45;;
55633;SDS011;41504;53.162;6.788;2023-05-07T06:27:15;23.27;;;18.80;;
55633;SDS011;41504;53.162;6.788;2023-05-07T06:29:48;25.15;;;18.73;;
55633;SDS011;41504;53.162;6.788;2023-05-07T06:32:14;25.45;;;19.35;;
55633;SDS011;41504;53.162;6.788;2023-05-07T06:34:40;26.77;;;19.13;;
55633;SDS011;41504;53.162;6.788;2023-05-07T06:37:09;22.80;;;17.50;;
55633;SDS011;41504;53.162;6.788;2023-05-07T06:39:37;24.85;;;18.02;;
55633;SDS011;41504;53.162;6.788;2023-05-07T06:42:03;23.00;;;18.10;;
55633;SDS011;41504;53.162;6.788;2023-05-07T06:44:30;25.85;;;19.17;;
55633;SDS011;41504;53.162;6.788;2023-05-07T06:46:56;27.33;;;18.95;;
55633;SDS011;41504;53.162;6.788;2023-05-07T06:49:34;23.63;;;18.08;;
55633;SDS011;41504;53.162;6.788;2023-05-07T06:52:00;25.23;;;19.25;;
55633;SDS011;41504;53.162;6.788;2023-05-07T06:54:26;24.80;;;18.05;;
55633;SDS011;41504;53.162;6.788;2023-05-07T06:56:52;25.60;;;18.92;;
55633;SDS011;41504;53.162;6.788;2023-05-07T06:59:18;25.75;;;19.50;;
55633;SDS011;41504;53.162;6.788;2023-05-07T07:01:44;25.75;;;19.30;;
55633;SDS011;41504;53.162;6.788;2023-05-07T07:04:10;24.20;;;18.67;;
55633;SDS011;41504;53.162;6.788;2023-05-07T07:06:36;26.85;;;19.15;;
55633;SDS011;41504;53.162;6.788;2023-05-07T07:09:04;23.65;;;18.33;;
55633;SDS011;41504;53.162;6.788;2023-05-07T07:11:30;25.02;;;18.63;;
55633;SDS011;41504;53.162;6.788;2023-05-07T07:13:56;25.45;;;19.15;;
55633;SDS011;41504;53.162;6.788;2023-05-07T07:16:24;26.92;;;20.58;;
55633;SDS011;41504;53.162;6.788;2023-05-07T07:18:50;23.55;;;18.00;;
55633;SDS011;41504;53.162;6.788;2023-05-07T07:21:16;24.08;;;18.77;;
55633;SDS011;41504;53.162;6.788;2023-05-07T07:23:43;26.17;;;18.77;;
55633;SDS011;41504;53.162;6.788;2023-05-07T07:26:09;23.63;;;18.83;;
55633;SDS011;41504;53.162;6.788;2023-05-07T07:28:44;26.73;;;19.70;;
55633;SDS011;41504;53.162;6.788;2023-05-07T07:31:13;26.95;;;19.88;;
55633;SDS011;41504;53.162;6.788;2023-05-07T07:33:40;27.33;;;19.40;;
55633;SDS011;41504;53.162;6.788;2023-05-07T07:36:13;27.52;;;19.50;;
55633;SDS011;41504;53.162;6.788;2023-05-07T07:38:45;25.33;;;19.13;;
55633;SDS011;41504;53.162;6.788;2023-05-07T07:41:13;24.63;;;18.98;;
55633;SDS011;41504;53.162;6.788;2023-05-07T07:43:39;27.98;;;19.42;;
55633;SDS011;41504;53.162;6.788;2023-05-07T07:46:05;28.10;;;20.27;;
55633;SDS011;41504;53.162;6.788;2023-05-07T07:48:31;26.52;;;19.48;;
55633;SDS011;41504;53.162;6.788;2023-05-07T07:50:57;23.55;;;18.98;;
55633;SDS011;41504;53.162;6.788;2023-05-07T07:53:47;27.38;;;19.60;;
55633;SDS011;41504;53.162;6.788;2023-05-07T07:56:17;27.33;;;20.30;;
55633;SDS011;41504;53.162;6.788;2023-05-07T07:58:55;25.38;;;18.58;;
55633;SDS011;41504;53.162;6.788;2023-05-07T08:01:23;25.90;;;19.23;;
55633;SDS011;41504;53.162;6.788;2023-05-07T08:03:50;26.00;;;18.88;;
55633;SDS011;41504;53.162;6.788;2023-05-07T08:06:16;25.30;;;19.25;;
55633;SDS011;41504;53.162;6.788;2023-05-07T08:08:47;28.77;;;19.88;;
55633;SDS011;41504;53.162;6.788;2023-05-07T08:11:13;26.23;;;18.40;;
55633;SDS011;41504;53.162;6.788;2023-05-07T08:13:40;26.50;;;18.75;;
55633;SDS011;41504;53.162;6.788;2023-05-07T08:16:06;27.25;;;19.92;;
55633;SDS011;41504;53.162;6.788;2023-05-07T08:18:35;25.58;;;18.52;;
55633;SDS011;41504;53.162;6.788;2023-05-07T08:21:04;26.65;;;18.88;;
55633;SDS011;41504;53.162;6.788;2023-05-07T08:23:30;26.05;;;19.10;;
55633;SDS011;41504;53.162;6.788;2023-05-07T08:25:59;25.73;;;18.83;;
55633;SDS011;41504;53.162;6.788;2023-05-07T08:28:28;26.42;;;19.27;;
55633;SDS011;41504;53.162;6.788;2023-05-07T08:30:54;26.95;;;19.73;;
55633;SDS011;41504;53.162;6.788;2023-05-07T08:33:22;25.45;;;19.27;;
55633;SDS011;41504;53.162;6.788;2023-05-07T08:35:50;27.50;;;19.90;;
55633;SDS011;41504;53.162;6.788;2023-05-07T08:38:16;29.20;;;19.52;;
55633;SDS011;41504;53.162;6.788;2023-05-07T08:40:44;27.80;;;19.45;;
55633;SDS011;41504;53.162;6.788;2023-05-07T08:43:17;25.27;;;18.67;;
55633;SDS011;41504;53.162;6.788;2023-05-07T08:45:45;26.75;;;19.67;;
55633;SDS011;41504;53.162;6.788;2023-05-07T08:48:15;26.00;;;19.40;;
55633;SDS011;41504;53.162;6.788;2023-05-07T08:50:41;27.60;;;19.42;;
55633;SDS011;41504;53.162;6.788;2023-05-07T08:53:07;27.67;;;20.75;;
55633;SDS011;41504;53.162;6.788;2023-05-07T08:55:34;25.05;;;19.40;;
55633;SDS011;41504;53.162;6.788;2023-05-07T08:58:00;27.65;;;19.50;;
55633;SDS011;41504;53.162;6.788;2023-05-07T09:00:26;25.38;;;18.95;;
55633;SDS011;41504;53.162;6.788;2023-05-07T09:02:52;28.40;;;19.88;;
55633;SDS011;41504;53.162;6.788;2023-05-07T09:05:19;25.10;;;18.25;;
55633;SDS011;41504;53.162;6.788;2023-05-07T09:07:47;27.35;;;19.73;;
55633;SDS011;41504;53.162;6.788;2023-05-07T09:10:16;29.70;;;19.88;;
55633;SDS011;41504;53.162;6.788;2023-05-07T09:12:46;24.98;;;18.85;;
55633;SDS011;41504;53.162;6.788;2023-05-07T09:15:13;26.55;;;18.95;;
55633;SDS011;41504;53.162;6.788;2023-05-07T09:17:45;25.15;;;18.38;;
55633;SDS011;41504;53.162;6.788;2023-05-07T09:20:14;25.98;;;20.05;;
55633;SDS011;41504;53.162;6.788;2023-05-07T09:22:42;27.27;;;18.88;;
55633;SDS011;41504;53.162;6.788;2023-05-07T09:25:12;25.95;;;18.25;;
55633;SDS011;41504;53.162;6.788;2023-05-07T09:27:38;26.20;;;18.27;;
55633;SDS011;41504;53.162;6.788;2023-05-07T09:30:08;24.33;;;18.23;;
55633;SDS011;41504;53.162;6.788;2023-05-07T09:32:35;24.63;;;18.15;;
55633;SDS011;41504;53.162;6.788;2023-05-07T09:35:03;22.42;;;17.38;;
55633;SDS011;41504;53.162;6.788;2023-05-07T09:37:30;23.85;;;17.38;;
55633;SDS011;41504;53.162;6.788;2023-05-07T09:39:57;23.55;;;17.48;;
55633;SDS011;41504;53.162;6.788;2023-05-07T09:42:23;23.75;;;17.33;;
55633;SDS011;41504;53.162;6.788;2023-05-07T09:44:52;23.42;;;16.83;;
55633;SDS011;41504;53.162;6.788;2023-05-07T09:47:21;25.80;;;18.70;;
55633;SDS011;41504;53.162;6.788;2023-05-07T09:50:01;22.25;;;16.48;;
55633;SDS011;41504;53.162;6.788;2023-05-07T09:52:30;22.77;;;17.48;;
55633;SDS011;41504;53.162;6.788;2023-05-07T09:55:00;22.73;;;16.60;;
55633;SDS011;41504;53.162;6.788;2023-05-07T09:57:27;21.95;;;16.67;;
55633;SDS011;41504;53.162;6.788;2023-05-07T10:00:00;25.00;;;16.75;;
55633;SDS011;41504;53.162;6.788;2023-05-07T10:02:29;23.50;;;17.27;;
55633;SDS011;41504;53.162;6.788;2023-05-07T10:04:57;22.13;;;16.98;;
55633;SDS011;41504;53.162;6.788;2023-05-07T10:07:25;21.42;;;16.88;;
55633;SDS011;41504;53.162;6.788;2023-05-07T10:10:00;20.75;;;16.33;;
55633;SDS011;41504;53.162;6.788;2023-05-07T10:12:28;21.30;;;16.20;;
55633;SDS011;41504;53.162;6.788;2023-05-07T10:14:59;21.67;;;16.30;;
55633;SDS011;41504;53.162;6.788;2023-05-07T10:17:39;21.63;;;17.20;;
55633;SDS011;41504;53.162;6.788;2023-05-07T10:20:05;20.60;;;16.00;;
55633;SDS011;41504;53.162;6.788;2023-05-07T10:22:33;22.55;;;17.33;;
55633;SDS011;41504;53.162;6.788;2023-05-07T10:25:25;21.88;;;16.65;;
55633;SDS011;41504;53.162;6.788;2023-05-07T10:28:08;19.48;;;15.63;;
55633;SDS011;41504;53.162;6.788;2023-05-07T10:33:26;20.52;;;15.98;;
55633;SDS011;41504;53.162;6.788;2023-05-07T10:35:58;18.90;;;15.43;;
55633;SDS011;41504;53.162;6.788;2023-05-07T10:38:29;20.15;;;15.88;;
55633;SDS011;41504;53.162;6.788;2023-05-07T10:40:56;21.08;;;15.63;;
55633;SDS011;41504;53.162;6.788;2023-05-07T10:43:23;19.45;;;15.00;;
55633;SDS011;41504;53.162;6.788;2023-05-07T10:51:41;17.77;;;14.43;;
55633;SDS011;41504;53.162;6.788;2023-05-07T10:56:36;19.80;;;15.02;;
55633;SDS011;41504;53.162;6.788;2023-05-07T11:01:58;18.58;;;14.63;;
55633;SDS011;41504;53.162;6.788;2023-05-07T11:04:29;18.65;;;15.07;;
55633;SDS011;41504;53.162;6.788;2023-05-07T11:15:08;17.33;;;14.38;;
55633;SDS011;41504;53.162;6.788;2023-05-07T11:17:54;18.77;;;15.15;;
55633;SDS011;41504;53.162;6.788;2023-05-07T11:21:06;18.08;;;14.48;;
55633;SDS011;41504;53.162;6.788;2023-05-07T11:26:03;19.17;;;15.25;;
55633;SDS011;41504;53.162;6.788;2023-05-07T11:28:42;19.00;;;14.90;;
55633;SDS011;41504;53.162;6.788;2023-05-07T11:31:09;18.20;;;15.40;;
55633;SDS011;41504;53.162;6.788;2023-05-07T11:33:38;18.98;;;15.30;;
55633;SDS011;41504;53.162;6.788;2023-05-07T11:36:08;17.63;;;14.93;;
55633;SDS011;41504;53.162;6.788;2023-05-07T11:38:37;16.67;;;13.80;;
55633;SDS011;41504;53.162;6.788;2023-05-07T11:41:04;15.73;;;13.45;;
55633;SDS011;41504;53.162;6.788;2023-05-07T11:43:31;17.13;;;14.35;;
55633;SDS011;41504;53.162;6.788;2023-05-07T11:46:10;16.83;;;13.73;;
55633;SDS011;41504;53.162;6.788;2023-05-07T11:48:37;15.07;;;13.25;;
55633;SDS011;41504;53.162;6.788;2023-05-07T11:51:04;15.13;;;13.13;;
55633;SDS011;41504;53.162;6.788;2023-05-07T11:53:37;17.20;;;13.75;;
55633;SDS011;41504;53.162;6.788;2023-05-07T11:56:08;15.40;;;13.05;;
55633;SDS011;41504;53.162;6.788;2023-05-07T11:58:36;18.33;;;13.95;;
55633;SDS011;41504;53.162;6.788;2023-05-07T12:01:02;17.50;;;13.85;;
55633;SDS011;41504;53.162;6.788;2023-05-07T12:03:31;16.08;;;13.55;;
55633;SDS011;41504;53.162;6.788;2023-05-07T12:05:57;16.20;;;13.05;;
55633;SDS011;41504;53.162;6.788;2023-05-07T12:08:25;16.55;;;12.95;;
55633;SDS011;41504;53.162;6.788;2023-05-07T12:10:51;15.70;;;13.85;;
55633;SDS011;41504;53.162;6.788;2023-05-07T12:13:21;16.33;;;13.50;;
55633;SDS011;41504;53.162;6.788;2023-05-07T12:15:51;14.93;;;12.77;;
55633;SDS011;41504;53.162;6.788;2023-05-07T12:18:23;16.35;;;12.73;;
55633;SDS011;41504;53.162;6.788;2023-05-07T12:20:50;15.57;;;12.88;;
55633;SDS011;41504;53.162;6.788;2023-05-07T12:23:16;17.45;;;12.93;;
55633;SDS011;41504;53.162;6.788;2023-05-07T12:25:45;15.40;;;13.80;;
55633;SDS011;41504;53.162;6.788;2023-05-07T12:28:13;15.65;;;13.82;;
55633;SDS011;41504;53.162;6.788;2023-05-07T12:30:46;16.30;;;14.32;;
55633;SDS011;41504;53.162;6.788;2023-05-07T12:33:34;14.35;;;12.77;;
55633;SDS011;41504;53.162;6.788;2023-05-07T12:36:05;15.98;;;13.18;;
55633;SDS011;41504;53.162;6.788;2023-05-07T12:38:34;16.63;;;14.82;;
55633;SDS011;41504;53.162;6.788;2023-05-07T12:41:05;15.55;;;13.43;;
55633;SDS011;41504;53.162;6.788;2023-05-07T12:43:32;15.23;;;13.63;;
55633;SDS011;41504;53.162;6.788;2023-05-07T12:46:00;16.55;;;13.23;;
55633;SDS011;41504;53.162;6.788;2023-05-07T12:48:32;14.70;;;12.85;;
55633;SDS011;41504;53.162;6.788;2023-05-07T12:51:01;15.77;;;13.63;;
55633;SDS011;41504;53.162;6.788;2023-05-07T12:53:33;14.80;;;13.25;;
55633;SDS011;41504;53.162;6.788;2023-05-07T12:56:08;14.13;;;12.45;;
55633;SDS011;41504;53.162;6.788;2023-05-07T12:58:48;15.75;;;13.38;;
55633;SDS011;41504;53.162;6.788;2023-05-07T13:01:14;14.45;;;12.43;;
55633;SDS011;41504;53.162;6.788;2023-05-07T13:03:50;15.10;;;13.50;;
55633;SDS011;41504;53.162;6.788;2023-05-07T13:06:16;14.02;;;12.55;;
55633;SDS011;41504;53.162;6.788;2023-05-07T13:08:47;17.08;;;14.25;;
55633;SDS011;41504;53.162;6.788;2023-05-07T13:11:13;14.70;;;13.18;;
55633;SDS011;41504;53.162;6.788;2023-05-07T13:13:39;14.57;;;13.05;;
55633;SDS011;41504;53.162;6.788;2023-05-07T13:16:09;15.05;;;13.10;;
55633;SDS011;41504;53.162;6.788;2023-05-07T13:18:39;13.30;;;11.85;;
55633;SDS011;41504;53.162;6.788;2023-05-07T13:21:06;13.70;;;12.30;;
55633;SDS011;41504;53.162;6.788;2023-05-07T13:23:32;14.40;;;12.00;;
55633;SDS011;41504;53.162;6.788;2023-05-07T13:25:58;17.98;;;14.77;;
55633;SDS011;41504;53.162;6.788;2023-05-07T13:28:27;15.80;;;14.00;;
55633;SDS011;41504;53.162;6.788;2023-05-07T13:30:53;14.18;;;12.68;;
55633;SDS011;41504;53.162;6.788;2023-05-07T13:33:19;15.55;;;12.98;;
55633;SDS011;41504;53.162;6.788;2023-05-07T13:35:46;13.20;;;11.80;;
55633;SDS011;41504;53.162;6.788;2023-05-07T13:38:12;14.15;;;12.07;;
55633;SDS011;41504;53.162;6.788;2023-05-07T13:40:40;13.75;;;12.05;;
55633;SDS011;41504;53.162;6.788;2023-05-07T13:43:09;13.07;;;11.68;;
55633;SDS011;41504;53.162;6.788;2023-05-07T13:45:39;13.20;;;10.38;;
55633;SDS011;41504;53.162;6.788;2023-05-07T13:48:05;13.60;;;12.05;;
55633;SDS011;41504;53.162;6.788;2023-05-07T13:50:31;12.43;;;11.13;;
55633;SDS011;41504;53.162;6.788;2023-05-07T13:52:57;12.82;;;11.48;;
55633;SDS011;41504;53.162;6.788;2023-05-07T13:55:23;12.93;;;11.63;;
55633;SDS011;41504;53.162;6.788;2023-05-07T13:57:56;12.48;;;11.18;;
55633;SDS011;41504;53.162;6.788;2023-05-07T14:00:32;13.45;;;11.48;;
55633;SDS011;41504;53.162;6.788;2023-05-07T14:02:58;11.57;;;10.38;;
55633;SDS011;41504;53.162;6.788;2023-05-07T14:05:28;12.68;;;11.38;;
55633;SDS011;41504;53.162;6.788;2023-05-07T14:07:58;12.50;;;11.20;;
55633;SDS011;41504;53.162;6.788;2023-05-07T14:10:30;10.90;;;9.80;;
55633;SDS011;41504;53.162;6.788;2023-05-07T14:12:56;11.60;;;10.20;;
55633;SDS011;41504;53.162;6.788;2023-05-07T14:15:29;12.73;;;11.32;;
55633;SDS011;41504;53.162;6.788;2023-05-07T14:17:57;12.35;;;10.57;;
55633;SDS011;41504;53.162;6.788;2023-05-07T14:20:24;12.00;;;10.77;;
55633;SDS011;41504;53.162;6.788;2023-05-07T14:22:50;11.65;;;10.45;;
55633;SDS011;41504;53.162;6.788;2023-05-07T14:25:20;11.32;;;9.98;;
55633;SDS011;41504;53.162;6.788;2023-05-07T14:27:46;11.27;;;10.07;;
55633;SDS011;41504;53.162;6.788;2023-05-07T14:30:12;11.88;;;10.68;;
55633;SDS011;41504;53.162;6.788;2023-05-07T14:32:38;12.75;;;10.50;;
55633;SDS011;41504;53.162;6.788;2023-05-07T14:35:04;12.27;;;10.27;;
55633;SDS011;41504;53.162;6.788;2023-05-07T14:37:30;11.70;;;10.48;;
55633;SDS011;41504;53.162;6.788;2023-05-07T14:39:55;12.23;;;11.02;;
55633;SDS011;41504;53.162;6.788;2023-05-07T14:42:21;11.95;;;10.75;;
55633;SDS011;41504;53.162;6.788;2023-05-07T14:44:47;12.52;;;11.10;;
55633;SDS011;41504;53.162;6.788;2023-05-07T14:47:13;12.07;;;10.20;;
55633;SDS011;41504;53.162;6.788;2023-05-07T14:49:40;12.25;;;10.60;;
55633;SDS011;41504;53.162;6.788;2023-05-07T14:52:07;12.88;;;11.00;;